Terminal Aerodrome Forecast
Issued by NWS

Home | Current Version | Previous Version | Text Only | Print | Product List | Glossary On
Versions: 1 2 3 4 5 6 7 8 9 10 11 12 13 14 15 16 17 18
000
FTUS44 KCRP 262335
TAFALI
TAF
KALI 262335Z 2700/2724 17015G25KT P6SM FEW040
     FM270200 17010KT P6SM SKC
     FM270500 17006KT 5SM BR BKN008
      TEMPO 2710/2714 2SM BR BKN003
     FM271400 15006KT P6SM BKN015
     FM272000 18010KT P6SM SCT015 BKN050=

USA.gov is the U.S. government's official web portal to all federal, state and local government web resources and services.